Terminal Aerodrome Forecast
Issued by NWS

Home | Current Version | Previous Version | Graphics & Text | Print | Product List | Glossary On
Versions: 1 2 3 4 5 6 7 8 9 10 11 12 13 14 15 16 17 18 19 20 21 22
000
FTUS43 KABR 141120
TAFATY
TAF
KATY 141120Z 1412/1512 09004KT P6SM BKN100
     FM141500 10008KT P6SM BKN080 OVC100
     FM141700 07009KT P6SM VCSH OVC025
     FM141800 06009KT P6SM SHRA OVC020
     FM142000 03011KT 1 1/2SM SHRA BR OVC015
     FM142300 36016G24KT 2SM -SHRA BR OVC010
     FM150300 33015G23KT P6SM OVC010
     FM150600 33013KT P6SM BKN040
     FM151000 31007KT P6SM FEW090=

USA.gov is the U.S. government's official web portal to all federal, state and local government web resources and services.